sensor_id;sensor_type;location;lat;lon;timestamp;P1;durP1;ratioP1;P2;durP2;ratioP2
68375;SDS011;55318;52.068;5.188;2022-08-19T00:01:21;5.9;;;2.8;;
68375;SDS011;55318;52.068;5.188;2022-08-19T00:02:59;4.1;;;2.4;;
68375;SDS011;55318;52.068;5.188;2022-08-19T00:06:12;2.7;;;2.1;;
68375;SDS011;55318;52.068;5.188;2022-08-19T00:07:49;4.3;;;2.8;;
68375;SDS011;55318;52.068;5.188;2022-08-19T00:09:27;3.5;;;2.6;;
68375;SDS011;55318;52.068;5.188;2022-08-19T00:12:41;3.8;;;2.8;;
68375;SDS011;55318;52.068;5.188;2022-08-19T00:14:18;5.2;;;3.3;;
68375;SDS011;55318;52.068;5.188;2022-08-19T00:15:55;4.41;;;2.9;;
68375;SDS011;55318;52.068;5.188;2022-08-19T00:17:31;3.0;;;2.6;;
68375;SDS011;55318;52.068;5.188;2022-08-19T00:20:45;4.8;;;3.4;;
68375;SDS011;55318;52.068;5.188;2022-08-19T00:22:20;4.3;;;3.2;;
68375;SDS011;55318;52.068;5.188;2022-08-19T00:23:58;5.11;;;3.4;;
68375;SDS011;55318;52.068;5.188;2022-08-19T00:27:12;4.2;;;3.0;;
68375;SDS011;55318;52.068;5.188;2022-08-19T00:28:49;3.9;;;3.2;;
68375;SDS011;55318;52.068;5.188;2022-08-19T00:30:27;4.3;;;3.3;;
68375;SDS011;55318;52.068;5.188;2022-08-19T00:33:41;4.2;;;3.0;;
68375;SDS011;55318;52.068;5.188;2022-08-19T00:35:18;5.4;;;3.2;;
68375;SDS011;55318;52.068;5.188;2022-08-19T00:36:54;4.2;;;3.2;;
68375;SDS011;55318;52.068;5.188;2022-08-19T00:38:31;4.1;;;3.2;;
68375;SDS011;55318;52.068;5.188;2022-08-19T00:41:50;6.8;;;3.5;;
68375;SDS011;55318;52.068;5.188;2022-08-19T00:43:27;5.3;;;3.6;;
68375;SDS011;55318;52.068;5.188;2022-08-19T00:45:05;5.5;;;3.2;;
68375;SDS011;55318;52.068;5.188;2022-08-19T00:46:48;4.5;;;3.2;;
68375;SDS011;55318;52.068;5.188;2022-08-19T00:50:02;4.7;;;3.3;;
68375;SDS011;55318;52.068;5.188;2022-08-19T00:51:41;4.91;;;3.7;;
68375;SDS011;55318;52.068;5.188;2022-08-19T00:53:22;2.9;;;2.5;;
68375;SDS011;55318;52.068;5.188;2022-08-19T00:56:44;5.2;;;3.1;;
68375;SDS011;55318;52.068;5.188;2022-08-19T00:58:22;4.2;;;3.3;;
68375;SDS011;55318;52.068;5.188;2022-08-19T01:00:06;5.6;;;3.5;;
68375;SDS011;55318;52.068;5.188;2022-08-19T01:01:46;5.2;;;3.6;;
68375;SDS011;55318;52.068;5.188;2022-08-19T01:05:00;6.6;;;3.6;;
68375;SDS011;55318;52.068;5.188;2022-08-19T01:06:41;8.71;;;3.4;;
68375;SDS011;55318;52.068;5.188;2022-08-19T01:08:17;5.8;;;3.7;;
68375;SDS011;55318;52.068;5.188;2022-08-19T01:09:55;5.0;;;3.8;;
68375;SDS011;55318;52.068;5.188;2022-08-19T01:13:19;4.7;;;3.4;;
68375;SDS011;55318;52.068;5.188;2022-08-19T01:14:59;5.2;;;3.5;;
68375;SDS011;55318;52.068;5.188;2022-08-19T01:16:35;5.8;;;3.5;;
68375;SDS011;55318;52.068;5.188;2022-08-19T01:18:15;5.0;;;3.4;;
68375;SDS011;55318;52.068;5.188;2022-08-19T01:21:31;5.11;;;3.2;;
68375;SDS011;55318;52.068;5.188;2022-08-19T01:23:20;5.11;;;3.2;;
68375;SDS011;55318;52.068;5.188;2022-08-19T01:24:56;4.41;;;3.2;;
68375;SDS011;55318;52.068;5.188;2022-08-19T01:26:34;3.9;;;3.1;;
68375;SDS011;55318;52.068;5.188;2022-08-19T01:29:56;5.0;;;3.5;;
68375;SDS011;55318;52.068;5.188;2022-08-19T01:31:31;4.0;;;3.2;;
68375;SDS011;55318;52.068;5.188;2022-08-19T01:33:07;4.61;;;3.6;;
68375;SDS011;55318;52.068;5.188;2022-08-19T01:36:24;4.5;;;2.9;;
68375;SDS011;55318;52.068;5.188;2022-08-19T01:38:08;6.6;;;3.3;;
68375;SDS011;55318;52.068;5.188;2022-08-19T01:39:46;5.11;;;3.2;;
68375;SDS011;55318;52.068;5.188;2022-08-19T01:41:23;5.5;;;3.8;;
68375;SDS011;55318;52.068;5.188;2022-08-19T01:44:37;3.9;;;3.2;;
68375;SDS011;55318;52.068;5.188;2022-08-19T01:46:15;5.2;;;3.0;;
68375;SDS011;55318;52.068;5.188;2022-08-19T01:47:52;5.8;;;3.2;;
68375;SDS011;55318;52.068;5.188;2022-08-19T01:51:06;4.41;;;3.0;;
68375;SDS011;55318;52.068;5.188;2022-08-19T01:52:45;4.41;;;2.9;;
68375;SDS011;55318;52.068;5.188;2022-08-19T01:54:23;5.2;;;3.2;;
68375;SDS011;55318;52.068;5.188;2022-08-19T01:56:00;4.91;;;3.1;;
68375;SDS011;55318;52.068;5.188;2022-08-19T01:59:20;4.61;;;3.2;;
68375;SDS011;55318;52.068;5.188;2022-08-19T02:01:00;3.9;;;2.8;;
68375;SDS011;55318;52.068;5.188;2022-08-19T02:02:36;3.5;;;2.9;;
68375;SDS011;55318;52.068;5.188;2022-08-19T02:04:12;5.3;;;3.0;;
68375;SDS011;55318;52.068;5.188;2022-08-19T02:07:32;3.9;;;3.2;;
68375;SDS011;55318;52.068;5.188;2022-08-19T02:09:08;5.0;;;3.0;;
68375;SDS011;55318;52.068;5.188;2022-08-19T02:10:46;4.41;;;2.9;;
68375;SDS011;55318;52.068;5.188;2022-08-19T02:13:58;6.4;;;2.8;;
68375;SDS011;55318;52.068;5.188;2022-08-19T02:15:36;4.0;;;3.2;;
68375;SDS011;55318;52.068;5.188;2022-08-19T02:17:13;3.9;;;2.9;;
68375;SDS011;55318;52.068;5.188;2022-08-19T02:18:50;4.41;;;3.0;;
68375;SDS011;55318;52.068;5.188;2022-08-19T02:22:03;5.2;;;3.0;;
68375;SDS011;55318;52.068;5.188;2022-08-19T02:23:40;4.0;;;2.7;;
68375;SDS011;55318;52.068;5.188;2022-08-19T02:25:16;3.7;;;3.1;;
68375;SDS011;55318;52.068;5.188;2022-08-19T02:28:29;4.1;;;3.2;;
68375;SDS011;55318;52.068;5.188;2022-08-19T02:30:06;5.0;;;3.0;;
68375;SDS011;55318;52.068;5.188;2022-08-19T02:31:47;6.1;;;4.41;;
68375;SDS011;55318;52.068;5.188;2022-08-19T02:35:00;4.8;;;3.0;;
68375;SDS011;55318;52.068;5.188;2022-08-19T02:36:36;4.5;;;2.7;;
68375;SDS011;55318;52.068;5.188;2022-08-19T02:38:29;3.9;;;2.6;;
68375;SDS011;55318;52.068;5.188;2022-08-19T02:40:06;4.1;;;2.9;;
68375;SDS011;55318;52.068;5.188;2022-08-19T02:43:20;4.1;;;2.6;;
68375;SDS011;55318;52.068;5.188;2022-08-19T02:44:58;4.3;;;2.8;;
68375;SDS011;55318;52.068;5.188;2022-08-19T02:46:34;4.0;;;2.5;;
68375;SDS011;55318;52.068;5.188;2022-08-19T02:48:11;5.2;;;2.9;;
68375;SDS011;55318;52.068;5.188;2022-08-19T02:51:26;4.5;;;3.1;;
68375;SDS011;55318;52.068;5.188;2022-08-19T02:53:08;3.9;;;2.6;;
68375;SDS011;55318;52.068;5.188;2022-08-19T02:54:45;4.3;;;2.5;;
68375;SDS011;55318;52.068;5.188;2022-08-19T02:57:59;4.1;;;2.6;;
68375;SDS011;55318;52.068;5.188;2022-08-19T02:59:36;5.0;;;2.5;;
68375;SDS011;55318;52.068;5.188;2022-08-19T03:01:19;3.9;;;2.6;;
68375;SDS011;55318;52.068;5.188;2022-08-19T03:02:57;2.21;;;1.9;;
68375;SDS011;55318;52.068;5.188;2022-08-19T03:06:10;5.5;;;3.1;;
68375;SDS011;55318;52.068;5.188;2022-08-19T03:07:49;4.5;;;3.4;;
68375;SDS011;55318;52.068;5.188;2022-08-19T03:09:27;5.11;;;2.9;;
68375;SDS011;55318;52.068;5.188;2022-08-19T03:12:40;4.7;;;2.9;;
68375;SDS011;55318;52.068;5.188;2022-08-19T03:14:18;3.8;;;2.9;;
68375;SDS011;55318;52.068;5.188;2022-08-19T03:15:54;5.7;;;3.2;;
68375;SDS011;55318;52.068;5.188;2022-08-19T03:17:30;4.5;;;3.0;;
68375;SDS011;55318;52.068;5.188;2022-08-19T03:20:43;5.0;;;3.1;;
68375;SDS011;55318;52.068;5.188;2022-08-19T03:22:21;3.8;;;2.8;;
68375;SDS011;55318;52.068;5.188;2022-08-19T03:24:00;6.5;;;4.0;;
68375;SDS011;55318;52.068;5.188;2022-08-19T03:27:24;5.2;;;3.5;;
68375;SDS011;55318;52.068;5.188;2022-08-19T03:29:02;4.7;;;3.2;;
68375;SDS011;55318;52.068;5.188;2022-08-19T03:30:41;5.9;;;3.4;;
68375;SDS011;55318;52.068;5.188;2022-08-19T03:32:19;4.5;;;2.8;;
68375;SDS011;55318;52.068;5.188;2022-08-19T03:35:31;4.7;;;3.2;;
68375;SDS011;55318;52.068;5.188;2022-08-19T03:37:08;3.9;;;2.8;;
68375;SDS011;55318;52.068;5.188;2022-08-19T03:38:49;5.9;;;3.6;;
68375;SDS011;55318;52.068;5.188;2022-08-19T03:40:30;7.4;;;3.4;;
68375;SDS011;55318;52.068;5.188;2022-08-19T03:43:46;5.9;;;3.6;;
68375;SDS011;55318;52.068;5.188;2022-08-19T03:45:23;5.3;;;3.6;;
68375;SDS011;55318;52.068;5.188;2022-08-19T03:47:00;6.6;;;3.3;;
68375;SDS011;55318;52.068;5.188;2022-08-19T03:50:15;6.8;;;3.3;;
68375;SDS011;55318;52.068;5.188;2022-08-19T03:51:52;3.9;;;3.0;;
68375;SDS011;55318;52.068;5.188;2022-08-19T03:53:30;5.8;;;3.4;;
68375;SDS011;55318;52.068;5.188;2022-08-19T03:55:08;4.7;;;2.7;;
68375;SDS011;55318;52.068;5.188;2022-08-19T03:58:24;7.7;;;3.8;;
68375;SDS011;55318;52.068;5.188;2022-08-19T04:00:05;4.91;;;3.6;;
68375;SDS011;55318;52.068;5.188;2022-08-19T04:01:42;6.1;;;4.0;;
68375;SDS011;55318;52.068;5.188;2022-08-19T04:04:55;7.2;;;4.0;;
68375;SDS011;55318;52.068;5.188;2022-08-19T04:06:32;7.7;;;4.5;;
68375;SDS011;55318;52.068;5.188;2022-08-19T04:08:11;5.8;;;3.9;;
68375;SDS011;55318;52.068;5.188;2022-08-19T04:09:47;7.4;;;5.0;;
68375;SDS011;55318;52.068;5.188;2022-08-19T04:13:05;8.71;;;5.0;;
68375;SDS011;55318;52.068;5.188;2022-08-19T04:14:41;8.71;;;5.0;;
68375;SDS011;55318;52.068;5.188;2022-08-19T04:16:17;6.0;;;4.2;;
68375;SDS011;55318;52.068;5.188;2022-08-19T04:19:33;8.6;;;5.8;;
68375;SDS011;55318;52.068;5.188;2022-08-19T04:21:15;7.8;;;4.91;;
68375;SDS011;55318;52.068;5.188;2022-08-19T04:22:52;10.3;;;5.7;;
68375;SDS011;55318;52.068;5.188;2022-08-19T04:24:29;8.0;;;5.3;;
68375;SDS011;55318;52.068;5.188;2022-08-19T04:27:46;8.5;;;5.3;;
68375;SDS011;55318;52.068;5.188;2022-08-19T04:29:24;9.5;;;5.6;;
68375;SDS011;55318;52.068;5.188;2022-08-19T04:31:01;10.9;;;5.11;;
68375;SDS011;55318;52.068;5.188;2022-08-19T04:34:18;9.71;;;5.3;;
68375;SDS011;55318;52.068;5.188;2022-08-19T04:35:58;9.0;;;5.4;;
68375;SDS011;55318;52.068;5.188;2022-08-19T04:37:34;8.6;;;5.3;;
68375;SDS011;55318;52.068;5.188;2022-08-19T04:39:11;8.31;;;5.4;;
68375;SDS011;55318;52.068;5.188;2022-08-19T04:43:47;10.6;;;6.0;;
68375;SDS011;55318;52.068;5.188;2022-08-19T04:45:23;12.1;;;6.1;;
68375;SDS011;55318;52.068;5.188;2022-08-19T04:48:37;10.4;;;5.9;;
68375;SDS011;55318;52.068;5.188;2022-08-19T04:50:15;7.0;;;4.41;;
68375;SDS011;55318;52.068;5.188;2022-08-19T04:51:54;8.81;;;5.0;;
68375;SDS011;55318;52.068;5.188;2022-08-19T04:55:10;9.71;;;5.0;;
68375;SDS011;55318;52.068;5.188;2022-08-19T04:56:49;9.0;;;5.0;;
68375;SDS011;55318;52.068;5.188;2022-08-19T04:58:27;9.4;;;5.8;;
68375;SDS011;55318;52.068;5.188;2022-08-19T05:00:04;8.5;;;5.4;;
68375;SDS011;55318;52.068;5.188;2022-08-19T05:03:19;7.1;;;5.11;;
68375;SDS011;55318;52.068;5.188;2022-08-19T05:04:57;8.31;;;5.3;;
68375;SDS011;55318;52.068;5.188;2022-08-19T05:06:34;9.1;;;5.4;;
68375;SDS011;55318;52.068;5.188;2022-08-19T05:09:50;9.21;;;5.5;;
68375;SDS011;55318;52.068;5.188;2022-08-19T05:11:27;7.5;;;4.8;;
68375;SDS011;55318;52.068;5.188;2022-08-19T05:13:09;7.4;;;5.11;;
68375;SDS011;55318;52.068;5.188;2022-08-19T05:14:49;13.4;;;5.6;;
68375;SDS011;55318;52.068;5.188;2022-08-19T05:24:29;11.0;;;5.9;;
68375;SDS011;55318;52.068;5.188;2022-08-19T05:26:06;10.6;;;5.6;;
68375;SDS011;55318;52.068;5.188;2022-08-19T05:27:42;10.3;;;5.7;;
68375;SDS011;55318;52.068;5.188;2022-08-19T05:29:19;8.31;;;5.11;;
68375;SDS011;55318;52.068;5.188;2022-08-19T05:32:33;11.7;;;7.0;;
68375;SDS011;55318;52.068;5.188;2022-08-19T05:34:11;10.5;;;6.1;;
68375;SDS011;55318;52.068;5.188;2022-08-19T05:35:49;10.3;;;6.2;;
68375;SDS011;55318;52.068;5.188;2022-08-19T05:39:04;8.4;;;5.4;;
68375;SDS011;55318;52.068;5.188;2022-08-19T05:40:41;11.8;;;6.4;;
68375;SDS011;55318;52.068;5.188;2022-08-19T05:42:20;9.4;;;6.1;;
68375;SDS011;55318;52.068;5.188;2022-08-19T05:43:57;9.6;;;6.6;;
68375;SDS011;55318;52.068;5.188;2022-08-19T05:47:16;11.4;;;7.0;;
68375;SDS011;55318;52.068;5.188;2022-08-19T05:48:53;13.3;;;7.3;;
68375;SDS011;55318;52.068;5.188;2022-08-19T05:50:30;16.4;;;8.5;;
68375;SDS011;55318;52.068;5.188;2022-08-19T05:53:46;16.8;;;8.81;;
68375;SDS011;55318;52.068;5.188;2022-08-19T05:55:23;16.11;;;7.9;;
68375;SDS011;55318;52.068;5.188;2022-08-19T05:57:00;14.9;;;8.4;;
68375;SDS011;55318;52.068;5.188;2022-08-19T05:58:37;14.3;;;9.0;;
68375;SDS011;55318;52.068;5.188;2022-08-19T06:01:54;20.7;;;11.6;;
68375;SDS011;55318;52.068;5.188;2022-08-19T06:03:32;20.11;;;10.8;;
68375;SDS011;55318;52.068;5.188;2022-08-19T06:05:09;21.8;;;10.9;;
68375;SDS011;55318;52.068;5.188;2022-08-19T06:08:24;23.3;;;11.8;;
68375;SDS011;55318;52.068;5.188;2022-08-19T06:10:02;20.9;;;11.6;;
68375;SDS011;55318;52.068;5.188;2022-08-19T06:11:41;23.9;;;13.0;;
68375;SDS011;55318;52.068;5.188;2022-08-19T06:13:20;28.7;;;15.0;;
68375;SDS011;55318;52.068;5.188;2022-08-19T06:16:36;26.7;;;13.3;;
68375;SDS011;55318;52.068;5.188;2022-08-19T06:18:14;31.9;;;14.0;;
68375;SDS011;55318;52.068;5.188;2022-08-19T06:19:51;27.5;;;13.4;;
68375;SDS011;55318;52.068;5.188;2022-08-19T06:23:06;32.71;;;15.0;;
68375;SDS011;55318;52.068;5.188;2022-08-19T06:24:43;29.5;;;14.9;;
68375;SDS011;55318;52.068;5.188;2022-08-19T06:26:20;29.4;;;14.4;;
68375;SDS011;55318;52.068;5.188;2022-08-19T06:27:57;32.3;;;15.1;;
68375;SDS011;55318;52.068;5.188;2022-08-19T06:31:14;28.3;;;14.7;;
68375;SDS011;55318;52.068;5.188;2022-08-19T06:32:52;28.6;;;14.7;;
68375;SDS011;55318;52.068;5.188;2022-08-19T06:34:30;29.4;;;14.6;;
68375;SDS011;55318;52.068;5.188;2022-08-19T06:36:15;32.4;;;14.4;;
68375;SDS011;55318;52.068;5.188;2022-08-19T06:39:30;27.9;;;13.5;;
68375;SDS011;55318;52.068;5.188;2022-08-19T06:41:14;32.5;;;15.1;;
68375;SDS011;55318;52.068;5.188;2022-08-19T06:42:50;25.2;;;13.1;;
68375;SDS011;55318;52.068;5.188;2022-08-19T06:46:10;34.1;;;14.5;;
68375;SDS011;55318;52.068;5.188;2022-08-19T06:47:48;28.5;;;15.5;;
68375;SDS011;55318;52.068;5.188;2022-08-19T06:49:27;33.5;;;15.0;;
68375;SDS011;55318;52.068;5.188;2022-08-19T06:51:08;29.1;;;13.4;;
68375;SDS011;55318;52.068;5.188;2022-08-19T06:54:20;33.5;;;14.4;;
68375;SDS011;55318;52.068;5.188;2022-08-19T06:56:00;26.4;;;14.5;;
68375;SDS011;55318;52.068;5.188;2022-08-19T06:57:36;25.1;;;13.8;;
68375;SDS011;55318;52.068;5.188;2022-08-19T06:59:13;29.5;;;14.8;;
68375;SDS011;55318;52.068;5.188;2022-08-19T07:02:39;27.3;;;13.5;;
68375;SDS011;55318;52.068;5.188;2022-08-19T07:04:17;28.6;;;15.4;;
68375;SDS011;55318;52.068;5.188;2022-08-19T07:05:56;30.5;;;14.6;;
68375;SDS011;55318;52.068;5.188;2022-08-19T07:07:34;26.1;;;14.4;;
68375;SDS011;55318;52.068;5.188;2022-08-19T07:10:53;29.1;;;14.3;;
68375;SDS011;55318;52.068;5.188;2022-08-19T07:12:30;28.6;;;13.2;;
68375;SDS011;55318;52.068;5.188;2022-08-19T07:14:07;26.8;;;12.9;;
68375;SDS011;55318;52.068;5.188;2022-08-19T07:17:22;25.2;;;14.2;;
68375;SDS011;55318;52.068;5.188;2022-08-19T07:18:59;26.2;;;13.2;;
68375;SDS011;55318;52.068;5.188;2022-08-19T07:20:36;29.8;;;16.3;;
68375;SDS011;55318;52.068;5.188;2022-08-19T07:22:14;25.6;;;12.9;;
68375;SDS011;55318;52.068;5.188;2022-08-19T07:25:28;24.9;;;12.3;;
68375;SDS011;55318;52.068;5.188;2022-08-19T07:27:05;24.3;;;13.9;;
68375;SDS011;55318;52.068;5.188;2022-08-19T07:28:43;32.3;;;14.2;;
68375;SDS011;55318;52.068;5.188;2022-08-19T07:31:59;25.2;;;12.7;;
68375;SDS011;55318;52.068;5.188;2022-08-19T07:33:38;24.4;;;12.8;;
68375;SDS011;55318;52.068;5.188;2022-08-19T07:35:14;24.8;;;12.0;;
68375;SDS011;55318;52.068;5.188;2022-08-19T07:36:51;21.2;;;12.5;;
68375;SDS011;55318;52.068;5.188;2022-08-19T07:40:05;22.2;;;10.8;;
68375;SDS011;55318;52.068;5.188;2022-08-19T07:41:43;19.91;;;12.0;;
68375;SDS011;55318;52.068;5.188;2022-08-19T07:43:25;22.9;;;11.3;;
68375;SDS011;55318;52.068;5.188;2022-08-19T07:46:45;21.5;;;12.0;;
68375;SDS011;55318;52.068;5.188;2022-08-19T07:48:28;20.9;;;10.7;;
68375;SDS011;55318;52.068;5.188;2022-08-19T07:50:07;19.7;;;11.1;;
68375;SDS011;55318;52.068;5.188;2022-08-19T07:51:47;18.5;;;11.1;;
68375;SDS011;55318;52.068;5.188;2022-08-19T07:55:04;16.7;;;10.21;;
68375;SDS011;55318;52.068;5.188;2022-08-19T07:58:19;20.41;;;10.6;;
68375;SDS011;55318;52.068;5.188;2022-08-19T07:59:58;19.5;;;10.4;;
68375;SDS011;55318;52.068;5.188;2022-08-19T08:03:13;25.6;;;10.5;;
68375;SDS011;55318;52.068;5.188;2022-08-19T08:09:31;18.0;;;9.81;;
68375;SDS011;55318;52.068;5.188;2022-08-19T08:11:09;20.5;;;10.4;;
68375;SDS011;55318;52.068;5.188;2022-08-19T08:12:45;21.2;;;10.4;;
68375;SDS011;55318;52.068;5.188;2022-08-19T08:16:03;20.41;;;9.81;;
68375;SDS011;55318;52.068;5.188;2022-08-19T08:17:40;19.3;;;9.81;;
68375;SDS011;55318;52.068;5.188;2022-08-19T08:19:18;17.11;;;9.21;;
68375;SDS011;55318;52.068;5.188;2022-08-19T08:20:56;17.11;;;9.21;;
68375;SDS011;55318;52.068;5.188;2022-08-19T08:25:15;21.9;;;10.6;;
68375;SDS011;55318;52.068;5.188;2022-08-19T08:28:35;20.7;;;10.3;;
68375;SDS011;55318;52.068;5.188;2022-08-19T08:30:13;22.3;;;11.1;;
68375;SDS011;55318;52.068;5.188;2022-08-19T08:31:53;23.2;;;10.8;;
68375;SDS011;55318;52.068;5.188;2022-08-19T08:33:30;26.3;;;11.7;;
68375;SDS011;55318;52.068;5.188;2022-08-19T08:36:48;27.1;;;12.1;;
68375;SDS011;55318;52.068;5.188;2022-08-19T08:40:02;20.5;;;11.8;;
68375;SDS011;55318;52.068;5.188;2022-08-19T08:41:43;18.2;;;10.6;;
68375;SDS011;55318;52.068;5.188;2022-08-19T08:45:15;19.2;;;9.6;;
68375;SDS011;55318;52.068;5.188;2022-08-19T08:46:55;17.91;;;9.31;;
68375;SDS011;55318;52.068;5.188;2022-08-19T08:48:38;18.61;;;9.0;;
68375;SDS011;55318;52.068;5.188;2022-08-19T08:50:21;18.0;;;9.6;;
68375;SDS011;55318;52.068;5.188;2022-08-19T08:53:48;16.2;;;9.21;;
68375;SDS011;55318;52.068;5.188;2022-08-19T08:55:27;14.8;;;7.6;;
68375;SDS011;55318;52.068;5.188;2022-08-19T08:57:07;17.3;;;8.9;;
68375;SDS011;55318;52.068;5.188;2022-08-19T08:58:56;14.6;;;8.5;;
68375;SDS011;55318;52.068;5.188;2022-08-19T09:00:38;15.9;;;8.4;;
68375;SDS011;55318;52.068;5.188;2022-08-19T09:03:56;12.8;;;7.0;;
68375;SDS011;55318;52.068;5.188;2022-08-19T09:05:35;14.4;;;7.8;;
68375;SDS011;55318;52.068;5.188;2022-08-19T09:07:30;15.3;;;8.6;;
68375;SDS011;55318;52.068;5.188;2022-08-19T09:09:32;14.8;;;8.4;;
68375;SDS011;55318;52.068;5.188;2022-08-19T09:11:15;13.5;;;6.4;;
68375;SDS011;55318;52.068;5.188;2022-08-19T09:13:08;13.7;;;8.1;;
68375;SDS011;55318;52.068;5.188;2022-08-19T09:16:41;17.3;;;8.5;;
68375;SDS011;55318;52.068;5.188;2022-08-19T09:18:18;15.6;;;8.31;;
68375;SDS011;55318;52.068;5.188;2022-08-19T09:19:56;15.8;;;9.4;;
68375;SDS011;55318;52.068;5.188;2022-08-19T09:21:35;17.41;;;8.71;;
68375;SDS011;55318;52.068;5.188;2022-08-19T09:24:48;13.8;;;7.5;;
68375;SDS011;55318;52.068;5.188;2022-08-19T09:26:25;17.11;;;9.1;;
68375;SDS011;55318;52.068;5.188;2022-08-19T09:28:03;14.0;;;9.1;;
68375;SDS011;55318;52.068;5.188;2022-08-19T09:31:16;15.7;;;8.5;;
68375;SDS011;55318;52.068;5.188;2022-08-19T09:33:01;17.0;;;9.21;;
68375;SDS011;55318;52.068;5.188;2022-08-19T09:34:37;16.7;;;9.0;;
68375;SDS011;55318;52.068;5.188;2022-08-19T09:36:14;18.5;;;9.4;;
68375;SDS011;55318;52.068;5.188;2022-08-19T09:39:31;15.7;;;8.9;;
68375;SDS011;55318;52.068;5.188;2022-08-19T09:41:08;15.4;;;9.6;;
68375;SDS011;55318;52.068;5.188;2022-08-19T09:42:48;17.2;;;9.31;;
68375;SDS011;55318;52.068;5.188;2022-08-19T09:46:00;16.9;;;8.9;;
68375;SDS011;55318;52.068;5.188;2022-08-19T09:47:38;16.61;;;9.31;;
68375;SDS011;55318;52.068;5.188;2022-08-19T09:49:14;17.91;;;9.21;;
68375;SDS011;55318;52.068;5.188;2022-08-19T09:50:52;20.6;;;9.1;;
68375;SDS011;55318;52.068;5.188;2022-08-19T09:54:04;18.91;;;10.3;;
68375;SDS011;55318;52.068;5.188;2022-08-19T09:55:41;15.0;;;9.81;;
68375;SDS011;55318;52.068;5.188;2022-08-19T09:57:18;18.5;;;11.0;;
68375;SDS011;55318;52.068;5.188;2022-08-19T10:00:31;17.8;;;9.9;;
68375;SDS011;55318;52.068;5.188;2022-08-19T10:02:09;19.2;;;10.4;;
68375;SDS011;55318;52.068;5.188;2022-08-19T10:03:46;18.8;;;11.5;;
68375;SDS011;55318;52.068;5.188;2022-08-19T10:05:56;17.61;;;10.4;;
68375;SDS011;55318;52.068;5.188;2022-08-19T10:07:35;19.2;;;11.4;;
68375;SDS011;55318;52.068;5.188;2022-08-19T10:10:50;16.11;;;9.71;;
68375;SDS011;55318;52.068;5.188;2022-08-19T10:12:27;19.2;;;10.6;;
68375;SDS011;55318;52.068;5.188;2022-08-19T10:14:05;19.41;;;10.8;;
68375;SDS011;55318;52.068;5.188;2022-08-19T10:17:20;18.11;;;10.7;;
68375;SDS011;55318;52.068;5.188;2022-08-19T10:18:57;19.91;;;11.1;;
68375;SDS011;55318;52.068;5.188;2022-08-19T10:20:35;20.8;;;10.9;;
68375;SDS011;55318;52.068;5.188;2022-08-19T10:22:14;17.91;;;10.1;;
68375;SDS011;55318;52.068;5.188;2022-08-19T10:25:32;22.5;;;11.3;;
68375;SDS011;55318;52.068;5.188;2022-08-19T10:27:09;18.2;;;10.1;;
68375;SDS011;55318;52.068;5.188;2022-08-19T10:28:46;20.9;;;11.6;;
68375;SDS011;55318;52.068;5.188;2022-08-19T10:32:00;20.0;;;11.0;;
68375;SDS011;55318;52.068;5.188;2022-08-19T10:33:37;16.11;;;10.0;;
68375;SDS011;55318;52.068;5.188;2022-08-19T10:35:15;21.1;;;11.4;;
68375;SDS011;55318;52.068;5.188;2022-08-19T10:36:52;15.9;;;10.0;;
68375;SDS011;55318;52.068;5.188;2022-08-19T10:40:07;19.2;;;10.8;;
68375;SDS011;55318;52.068;5.188;2022-08-19T10:41:44;22.2;;;10.5;;
68375;SDS011;55318;52.068;5.188;2022-08-19T10:43:20;22.7;;;11.3;;
68375;SDS011;55318;52.068;5.188;2022-08-19T10:46:35;18.2;;;10.5;;
68375;SDS011;55318;52.068;5.188;2022-08-19T10:48:16;16.9;;;9.81;;
68375;SDS011;55318;52.068;5.188;2022-08-19T10:52:46;18.61;;;10.7;;
68375;SDS011;55318;52.068;5.188;2022-08-19T10:56:51;20.7;;;12.5;;
68375;SDS011;55318;52.068;5.188;2022-08-19T10:58:26;18.5;;;10.0;;
68375;SDS011;55318;52.068;5.188;2022-08-19T11:00:03;18.0;;;10.0;;
68375;SDS011;55318;52.068;5.188;2022-08-19T11:03:19;17.41;;;10.9;;
68375;SDS011;55318;52.068;5.188;2022-08-19T11:04:56;19.7;;;9.9;;
68375;SDS011;55318;52.068;5.188;2022-08-19T11:06:32;17.5;;;9.6;;
68375;SDS011;55318;52.068;5.188;2022-08-19T11:08:11;18.7;;;10.3;;
68375;SDS011;55318;52.068;5.188;2022-08-19T11:11:24;15.6;;;9.81;;
68375;SDS011;55318;52.068;5.188;2022-08-19T11:13:00;18.41;;;9.9;;
68375;SDS011;55318;52.068;5.188;2022-08-19T11:14:36;16.11;;;10.0;;
68375;SDS011;55318;52.068;5.188;2022-08-19T11:17:54;14.2;;;9.21;;
68375;SDS011;55318;52.068;5.188;2022-08-19T11:19:31;27.3;;;11.0;;
68375;SDS011;55318;52.068;5.188;2022-08-19T11:21:10;16.2;;;9.71;;
68375;SDS011;55318;52.068;5.188;2022-08-19T11:22:50;17.5;;;9.4;;
68375;SDS011;55318;52.068;5.188;2022-08-19T11:26:04;14.5;;;9.0;;
68375;SDS011;55318;52.068;5.188;2022-08-19T11:27:42;16.4;;;9.81;;
68375;SDS011;55318;52.068;5.188;2022-08-19T11:29:19;17.8;;;9.71;;
68375;SDS011;55318;52.068;5.188;2022-08-19T11:32:36;13.6;;;9.6;;
68375;SDS011;55318;52.068;5.188;2022-08-19T11:34:14;16.61;;;9.6;;
68375;SDS011;55318;52.068;5.188;2022-08-19T11:35:56;16.0;;;9.5;;
68375;SDS011;55318;52.068;5.188;2022-08-19T11:37:37;17.11;;;9.81;;
68375;SDS011;55318;52.068;5.188;2022-08-19T11:40:55;19.0;;;10.5;;
68375;SDS011;55318;52.068;5.188;2022-08-19T11:43:04;17.8;;;9.31;;
68375;SDS011;55318;52.068;5.188;2022-08-19T11:44:40;16.11;;;9.5;;
68375;SDS011;55318;52.068;5.188;2022-08-19T11:46:17;17.7;;;11.5;;
68375;SDS011;55318;52.068;5.188;2022-08-19T11:47:53;18.91;;;10.1;;
68375;SDS011;55318;52.068;5.188;2022-08-19T11:51:13;16.9;;;10.8;;
68375;SDS011;55318;52.068;5.188;2022-08-19T11:52:53;16.5;;;9.6;;
68375;SDS011;55318;52.068;5.188;2022-08-19T11:54:30;17.7;;;10.3;;
68375;SDS011;55318;52.068;5.188;2022-08-19T11:57:46;14.0;;;9.0;;
68375;SDS011;55318;52.068;5.188;2022-08-19T11:59:22;15.3;;;9.1;;
68375;SDS011;55318;52.068;5.188;2022-08-19T12:00:58;18.3;;;10.3;;
68375;SDS011;55318;52.068;5.188;2022-08-19T12:02:35;15.9;;;10.3;;
68375;SDS011;55318;52.068;5.188;2022-08-19T12:05:48;14.5;;;9.4;;
68375;SDS011;55318;52.068;5.188;2022-08-19T12:07:25;15.1;;;9.21;;
68375;SDS011;55318;52.068;5.188;2022-08-19T12:09:03;15.3;;;9.71;;
68375;SDS011;55318;52.068;5.188;2022-08-19T12:12:19;16.3;;;8.31;;
68375;SDS011;55318;52.068;5.188;2022-08-19T12:13:56;14.9;;;8.5;;
68375;SDS011;55318;52.068;5.188;2022-08-19T12:15:34;11.0;;;7.2;;
68375;SDS011;55318;52.068;5.188;2022-08-19T12:17:11;12.8;;;7.5;;
68375;SDS011;55318;52.068;5.188;2022-08-19T12:20:27;13.4;;;7.9;;
68375;SDS011;55318;52.068;5.188;2022-08-19T12:22:05;13.8;;;7.9;;
68375;SDS011;55318;52.068;5.188;2022-08-19T12:23:41;11.9;;;7.9;;
68375;SDS011;55318;52.068;5.188;2022-08-19T12:26:56;11.8;;;6.7;;
68375;SDS011;55318;52.068;5.188;2022-08-19T12:28:33;9.9;;;5.4;;
68375;SDS011;55318;52.068;5.188;2022-08-19T12:30:10;10.3;;;5.5;;
68375;SDS011;55318;52.068;5.188;2022-08-19T12:31:49;5.7;;;4.41;;
68375;SDS011;55318;52.068;5.188;2022-08-19T12:35:04;7.8;;;4.5;;
68375;SDS011;55318;52.068;5.188;2022-08-19T12:36:42;6.7;;;4.1;;
68375;SDS011;55318;52.068;5.188;2022-08-19T12:38:18;4.91;;;3.1;;
68375;SDS011;55318;52.068;5.188;2022-08-19T12:41:33;4.7;;;3.8;;
68375;SDS011;55318;52.068;5.188;2022-08-19T12:43:09;8.4;;;3.5;;
68375;SDS011;55318;52.068;5.188;2022-08-19T12:44:45;5.3;;;3.2;;
68375;SDS011;55318;52.068;5.188;2022-08-19T12:47:57;6.4;;;4.1;;
68375;SDS011;55318;52.068;5.188;2022-08-19T12:49:37;5.5;;;3.4;;
68375;SDS011;55318;52.068;5.188;2022-08-19T12:51:15;4.0;;;2.6;;
68375;SDS011;55318;52.068;5.188;2022-08-19T12:52:53;3.9;;;2.6;;
68375;SDS011;55318;52.068;5.188;2022-08-19T12:56:09;4.41;;;2.9;;
68375;SDS011;55318;52.068;5.188;2022-08-19T12:57:48;5.9;;;2.5;;
68375;SDS011;55318;52.068;5.188;2022-08-19T12:59:25;3.8;;;2.5;;
68375;SDS011;55318;52.068;5.188;2022-08-19T13:02:46;4.7;;;3.1;;
68375;SDS011;55318;52.068;5.188;2022-08-19T13:04:25;3.9;;;2.21;;
68375;SDS011;55318;52.068;5.188;2022-08-19T13:06:01;4.0;;;2.9;;
68375;SDS011;55318;52.068;5.188;2022-08-19T13:07:38;3.9;;;2.8;;
68375;SDS011;55318;52.068;5.188;2022-08-19T13:10:53;5.2;;;3.1;;